sensor_id;sensor_type;location;lat;lon;timestamp;temperature;humidity
46752;DHT22;32497;48.936;9.270;2023-08-08T00:00:54;12.70;80.10
46752;DHT22;32497;48.936;9.270;2023-08-08T00:05:55;12.70;79.20
46752;DHT22;32497;48.936;9.270;2023-08-08T00:10:56;12.70;79.60
46752;DHT22;32497;48.936;9.270;2023-08-08T00:15:59;12.60;79.40
46752;DHT22;32497;48.936;9.270;2023-08-08T00:21:00;12.50;79.60
46752;DHT22;32497;48.936;9.270;2023-08-08T00:26:01;12.60;79.90
46752;DHT22;32497;48.936;9.270;2023-08-08T00:31:03;12.70;79.70
46752;DHT22;32497;48.936;9.270;2023-08-08T00:36:05;12.80;79.30
46752;DHT22;32497;48.936;9.270;2023-08-08T00:41:06;12.90;78.70
46752;DHT22;32497;48.936;9.270;2023-08-08T00:46:08;12.90;79.40
46752;DHT22;32497;48.936;9.270;2023-08-08T00:51:09;12.90;79.80
46752;DHT22;32497;48.936;9.270;2023-08-08T00:56:12;13.00;79.60
46752;DHT22;32497;48.936;9.270;2023-08-08T01:01:15;13.00;79.70
46752;DHT22;32497;48.936;9.270;2023-08-08T01:06:21;13.00;79.70
46752;DHT22;32497;48.936;9.270;2023-08-08T01:11:28;13.00;79.70
46752;DHT22;32497;48.936;9.270;2023-08-08T01:16:34;13.00;79.90
46752;DHT22;32497;48.936;9.270;2023-08-08T01:21:36;13.00;79.80
46752;DHT22;32497;48.936;9.270;2023-08-08T01:26:39;13.00;79.70
46752;DHT22;32497;48.936;9.270;2023-08-08T01:31:41;13.00;80.00
46752;DHT22;32497;48.936;9.270;2023-08-08T01:36:46;13.10;79.30
46752;DHT22;32497;48.936;9.270;2023-08-08T01:41:50;13.10;79.50
46752;DHT22;32497;48.936;9.270;2023-08-08T01:46:54;13.10;79.90
46752;DHT22;32497;48.936;9.270;2023-08-08T01:51:55;13.10;80.10
46752;DHT22;32497;48.936;9.270;2023-08-08T01:56:57;13.10;79.80
46752;DHT22;32497;48.936;9.270;2023-08-08T02:01:58;13.10;79.80
46752;DHT22;32497;48.936;9.270;2023-08-08T02:06:59;13.20;79.50
46752;DHT22;32497;48.936;9.270;2023-08-08T02:12:04;13.20;79.30
46752;DHT22;32497;48.936;9.270;2023-08-08T02:17:07;13.20;78.90
46752;DHT22;32497;48.936;9.270;2023-08-08T02:22:09;13.20;79.30
46752;DHT22;32497;48.936;9.270;2023-08-08T02:27:12;13.20;79.40
46752;DHT22;32497;48.936;9.270;2023-08-08T02:32:13;13.20;79.10
46752;DHT22;32497;48.936;9.270;2023-08-08T02:37:14;13.10;79.70
46752;DHT22;32497;48.936;9.270;2023-08-08T02:42:17;13.10;80.10
46752;DHT22;32497;48.936;9.270;2023-08-08T02:47:19;13.00;80.20
46752;DHT22;32497;48.936;9.270;2023-08-08T02:52:20;12.80;81.10
46752;DHT22;32497;48.936;9.270;2023-08-08T02:57:23;12.60;81.70
46752;DHT22;32497;48.936;9.270;2023-08-08T03:02:24;12.40;82.10
46752;DHT22;32497;48.936;9.270;2023-08-08T03:07:26;12.30;82.70
46752;DHT22;32497;48.936;9.270;2023-08-08T03:12:29;12.20;83.30
46752;DHT22;32497;48.936;9.270;2023-08-08T03:17:30;12.10;83.60
46752;DHT22;32497;48.936;9.270;2023-08-08T03:22:31;11.90;83.70
46752;DHT22;32497;48.936;9.270;2023-08-08T03:27:34;11.80;83.80
46752;DHT22;32497;48.936;9.270;2023-08-08T03:32:35;11.90;84.20
46752;DHT22;32497;48.936;9.270;2023-08-08T03:37:36;11.90;84.00
46752;DHT22;32497;48.936;9.270;2023-08-08T03:42:40;11.80;83.50
46752;DHT22;32497;48.936;9.270;2023-08-08T03:47:42;11.90;84.10
46752;DHT22;32497;48.936;9.270;2023-08-08T03:52:43;12.00;83.80
46752;DHT22;32497;48.936;9.270;2023-08-08T03:57:47;12.20;83.30
46752;DHT22;32497;48.936;9.270;2023-08-08T04:02:49;12.40;82.60
46752;DHT22;32497;48.936;9.270;2023-08-08T04:07:50;12.40;82.40
46752;DHT22;32497;48.936;9.270;2023-08-08T04:12:53;12.40;82.50
46752;DHT22;32497;48.936;9.270;2023-08-08T04:17:55;12.40;82.20
46752;DHT22;32497;48.936;9.270;2023-08-08T04:22:56;12.50;81.50
46752;DHT22;32497;48.936;9.270;2023-08-08T04:27:58;12.60;81.80
46752;DHT22;32497;48.936;9.270;2023-08-08T04:32:59;12.60;82.20
46752;DHT22;32497;48.936;9.270;2023-08-08T04:38:01;12.70;81.70
46752;DHT22;32497;48.936;9.270;2023-08-08T04:43:03;12.90;81.90
46752;DHT22;32497;48.936;9.270;2023-08-08T04:48:05;13.00;81.20
46752;DHT22;32497;48.936;9.270;2023-08-08T04:53:06;13.10;80.30
46752;DHT22;32497;48.936;9.270;2023-08-08T04:58:09;13.20;80.70
46752;DHT22;32497;48.936;9.270;2023-08-08T05:03:10;13.10;80.50
46752;DHT22;32497;48.936;9.270;2023-08-08T05:08:11;13.10;80.90
46752;DHT22;32497;48.936;9.270;2023-08-08T05:13:14;13.10;80.80
46752;DHT22;32497;48.936;9.270;2023-08-08T05:18:15;13.20;80.80
46752;DHT22;32497;48.936;9.270;2023-08-08T05:23:16;13.50;80.90
46752;DHT22;32497;48.936;9.270;2023-08-08T05:28:18;13.80;78.60
46752;DHT22;32497;48.936;9.270;2023-08-08T05:33:19;14.10;78.60
46752;DHT22;32497;48.936;9.270;2023-08-08T05:38:20;14.20;77.40
46752;DHT22;32497;48.936;9.270;2023-08-08T05:43:23;14.20;77.90
46752;DHT22;32497;48.936;9.270;2023-08-08T05:48:24;14.20;78.50
46752;DHT22;32497;48.936;9.270;2023-08-08T05:53:25;14.20;78.50
46752;DHT22;32497;48.936;9.270;2023-08-08T05:58:27;14.30;79.10
46752;DHT22;32497;48.936;9.270;2023-08-08T06:03:29;14.40;78.20
46752;DHT22;32497;48.936;9.270;2023-08-08T06:08:30;14.60;76.10
46752;DHT22;32497;48.936;9.270;2023-08-08T06:13:32;14.70;76.10
46752;DHT22;32497;48.936;9.270;2023-08-08T06:18:34;15.00;74.90
46752;DHT22;32497;48.936;9.270;2023-08-08T06:23:35;15.20;74.10
46752;DHT22;32497;48.936;9.270;2023-08-08T06:28:37;15.30;72.80
46752;DHT22;32497;48.936;9.270;2023-08-08T06:33:38;15.60;71.40
46752;DHT22;32497;48.936;9.270;2023-08-08T06:38:39;15.90;70.30
46752;DHT22;32497;48.936;9.270;2023-08-08T06:43:42;16.10;71.30
46752;DHT22;32497;48.936;9.270;2023-08-08T06:48:43;16.40;71.30
46752;DHT22;32497;48.936;9.270;2023-08-08T06:53:44;17.10;69.60
46752;DHT22;32497;48.936;9.270;2023-08-08T06:58:46;17.40;68.40
46752;DHT22;32497;48.936;9.270;2023-08-08T07:03:47;17.10;68.00
46752;DHT22;32497;48.936;9.270;2023-08-08T07:08:49;17.50;66.10
46752;DHT22;32497;48.936;9.270;2023-08-08T07:13:51;17.90;65.70
46752;DHT22;32497;48.936;9.270;2023-08-08T07:18:52;18.20;62.30
46752;DHT22;32497;48.936;9.270;2023-08-08T07:23:54;18.10;64.80
46752;DHT22;32497;48.936;9.270;2023-08-08T07:28:56;18.40;63.70
46752;DHT22;32497;48.936;9.270;2023-08-08T07:33:57;17.50;64.30
46752;DHT22;32497;48.936;9.270;2023-08-08T07:38:58;17.70;62.90
46752;DHT22;32497;48.936;9.270;2023-08-08T07:44:01;17.80;64.30
46752;DHT22;32497;48.936;9.270;2023-08-08T07:49:02;17.90;61.40
46752;DHT22;32497;48.936;9.270;2023-08-08T07:54:03;18.10;59.90
46752;DHT22;32497;48.936;9.270;2023-08-08T07:59:06;18.40;57.90
46752;DHT22;32497;48.936;9.270;2023-08-08T08:04:07;18.80;59.60
46752;DHT22;32497;48.936;9.270;2023-08-08T08:09:08;19.40;57.10
46752;DHT22;32497;48.936;9.270;2023-08-08T08:14:10;19.60;57.40
46752;DHT22;32497;48.936;9.270;2023-08-08T08:19:11;19.90;55.10
46752;DHT22;32497;48.936;9.270;2023-08-08T08:24:12;20.00;56.70
46752;DHT22;32497;48.936;9.270;2023-08-08T08:29:15;19.80;57.00
46752;DHT22;32497;48.936;9.270;2023-08-08T08:34:16;19.90;55.50
46752;DHT22;32497;48.936;9.270;2023-08-08T08:39:17;19.90;56.90
46752;DHT22;32497;48.936;9.270;2023-08-08T08:44:21;20.40;56.00
46752;DHT22;32497;48.936;9.270;2023-08-08T08:49:23;20.20;55.00
46752;DHT22;32497;48.936;9.270;2023-08-08T08:54:25;20.80;54.20
46752;DHT22;32497;48.936;9.270;2023-08-08T08:59:27;21.20;51.40
46752;DHT22;32497;48.936;9.270;2023-08-08T09:04:29;20.90;50.00
46752;DHT22;32497;48.936;9.270;2023-08-08T09:09:31;21.40;49.50
46752;DHT22;32497;48.936;9.270;2023-08-08T09:14:34;21.60;51.40
46752;DHT22;32497;48.936;9.270;2023-08-08T09:19:42;21.80;49.10
46752;DHT22;32497;48.936;9.270;2023-08-08T09:24:44;21.70;50.00
46752;DHT22;32497;48.936;9.270;2023-08-08T09:29:46;22.10;49.40
46752;DHT22;32497;48.936;9.270;2023-08-08T09:34:47;22.10;47.90
46752;DHT22;32497;48.936;9.270;2023-08-08T09:39:56;21.80;49.40
46752;DHT22;32497;48.936;9.270;2023-08-08T09:44:59;22.20;48.50
46752;DHT22;32497;48.936;9.270;2023-08-08T09:50:01;22.20;51.30
46752;DHT22;32497;48.936;9.270;2023-08-08T09:55:04;22.70;49.50
46752;DHT22;32497;48.936;9.270;2023-08-08T10:00:08;22.80;49.90
46752;DHT22;32497;48.936;9.270;2023-08-08T10:05:12;22.90;48.40
46752;DHT22;32497;48.936;9.270;2023-08-08T10:10:13;22.70;47.00
46752;DHT22;32497;48.936;9.270;2023-08-08T10:15:16;23.40;44.40
46752;DHT22;32497;48.936;9.270;2023-08-08T10:20:19;22.70;44.10
46752;DHT22;32497;48.936;9.270;2023-08-08T10:25:23;22.70;44.20
46752;DHT22;32497;48.936;9.270;2023-08-08T10:30:26;22.90;43.40
46752;DHT22;32497;48.936;9.270;2023-08-08T10:35:36;22.90;44.40
46752;DHT22;32497;48.936;9.270;2023-08-08T10:40:42;23.00;41.50
46752;DHT22;32497;48.936;9.270;2023-08-08T10:45:45;23.30;42.60
46752;DHT22;32497;48.936;9.270;2023-08-08T10:50:46;23.80;43.50
46752;DHT22;32497;48.936;9.270;2023-08-08T10:55:57;24.70;42.30
46752;DHT22;32497;48.936;9.270;2023-08-08T11:01:00;24.20;39.90
46752;DHT22;32497;48.936;9.270;2023-08-08T11:06:01;24.00;40.10
46752;DHT22;32497;48.936;9.270;2023-08-08T11:11:02;24.20;40.20
46752;DHT22;32497;48.936;9.270;2023-08-08T11:16:05;24.50;40.20
46752;DHT22;32497;48.936;9.270;2023-08-08T11:21:09;24.50;39.50
46752;DHT22;32497;48.936;9.270;2023-08-08T11:26:11;25.00;37.80
46752;DHT22;32497;48.936;9.270;2023-08-08T11:31:13;24.70;38.60
46752;DHT22;32497;48.936;9.270;2023-08-08T11:36:14;25.00;39.40
46752;DHT22;32497;48.936;9.270;2023-08-08T11:41:17;25.20;37.20
46752;DHT22;32497;48.936;9.270;2023-08-08T11:46:24;24.50;40.40
46752;DHT22;32497;48.936;9.270;2023-08-08T11:51:28;24.90;39.40
46752;DHT22;32497;48.936;9.270;2023-08-08T11:56:29;25.10;41.40
46752;DHT22;32497;48.936;9.270;2023-08-08T12:01:35;24.70;41.20
46752;DHT22;32497;48.936;9.270;2023-08-08T12:06:38;25.20;42.20
46752;DHT22;32497;48.936;9.270;2023-08-08T12:11:39;25.30;39.30
46752;DHT22;32497;48.936;9.270;2023-08-08T12:16:42;25.00;39.90
46752;DHT22;32497;48.936;9.270;2023-08-08T12:21:43;25.30;40.00
46752;DHT22;32497;48.936;9.270;2023-08-08T12:26:44;25.20;38.40
46752;DHT22;32497;48.936;9.270;2023-08-08T12:31:46;24.90;37.50
46752;DHT22;32497;48.936;9.270;2023-08-08T12:36:48;25.40;35.20
46752;DHT22;32497;48.936;9.270;2023-08-08T12:41:49;25.20;37.90
46752;DHT22;32497;48.936;9.270;2023-08-08T12:46:51;24.50;35.30
46752;DHT22;32497;48.936;9.270;2023-08-08T12:51:52;24.40;38.80
46752;DHT22;32497;48.936;9.270;2023-08-08T12:56:56;24.70;35.50
46752;DHT22;32497;48.936;9.270;2023-08-08T13:01:59;24.90;35.30
46752;DHT22;32497;48.936;9.270;2023-08-08T13:07:00;25.70;37.70
46752;DHT22;32497;48.936;9.270;2023-08-08T13:12:01;26.60;36.80
46752;DHT22;32497;48.936;9.270;2023-08-08T13:17:03;26.70;35.60
46752;DHT22;32497;48.936;9.270;2023-08-08T13:22:05;26.20;36.40
46752;DHT22;32497;48.936;9.270;2023-08-08T13:27:06;25.60;36.60
46752;DHT22;32497;48.936;9.270;2023-08-08T13:32:08;25.20;38.90
46752;DHT22;32497;48.936;9.270;2023-08-08T13:37:09;25.80;36.90
46752;DHT22;32497;48.936;9.270;2023-08-08T13:42:10;26.20;35.30
46752;DHT22;32497;48.936;9.270;2023-08-08T13:47:13;26.40;34.90
46752;DHT22;32497;48.936;9.270;2023-08-08T13:52:14;26.10;34.90
46752;DHT22;32497;48.936;9.270;2023-08-08T13:57:15;26.20;35.10
46752;DHT22;32497;48.936;9.270;2023-08-08T14:02:17;25.90;34.60
46752;DHT22;32497;48.936;9.270;2023-08-08T14:07:19;25.60;36.30
46752;DHT22;32497;48.936;9.270;2023-08-08T14:12:20;26.20;38.40
46752;DHT22;32497;48.936;9.270;2023-08-08T14:17:22;26.80;36.40
46752;DHT22;32497;48.936;9.270;2023-08-08T14:22:23;27.20;34.90
46752;DHT22;32497;48.936;9.270;2023-08-08T14:27:24;26.30;36.70
46752;DHT22;32497;48.936;9.270;2023-08-08T14:32:27;25.50;39.10
46752;DHT22;32497;48.936;9.270;2023-08-08T14:37:28;25.10;38.80
46752;DHT22;32497;48.936;9.270;2023-08-08T14:42:29;25.60;39.60
46752;DHT22;32497;48.936;9.270;2023-08-08T14:47:32;25.00;39.40
46752;DHT22;32497;48.936;9.270;2023-08-08T14:52:33;25.50;38.90
46752;DHT22;32497;48.936;9.270;2023-08-08T14:57:34;25.10;40.00
46752;DHT22;32497;48.936;9.270;2023-08-08T15:02:36;24.50;40.20
46752;DHT22;32497;48.936;9.270;2023-08-08T15:07:37;23.90;40.60
46752;DHT22;32497;48.936;9.270;2023-08-08T15:12:39;23.40;43.70
46752;DHT22;32497;48.936;9.270;2023-08-08T15:17:41;22.90;42.40
46752;DHT22;32497;48.936;9.270;2023-08-08T15:22:42;22.80;43.80
46752;DHT22;32497;48.936;9.270;2023-08-08T15:27:43;22.90;45.00
46752;DHT22;32497;48.936;9.270;2023-08-08T15:32:46;23.30;44.40
46752;DHT22;32497;48.936;9.270;2023-08-08T15:37:47;23.10;42.90
46752;DHT22;32497;48.936;9.270;2023-08-08T15:42:48;22.60;44.10
46752;DHT22;32497;48.936;9.270;2023-08-08T15:47:50;22.40;44.20
46752;DHT22;32497;48.936;9.270;2023-08-08T15:52:52;22.70;45.00
46752;DHT22;32497;48.936;9.270;2023-08-08T15:57:53;23.10;43.40
46752;DHT22;32497;48.936;9.270;2023-08-08T16:02:55;23.50;43.10
46752;DHT22;32497;48.936;9.270;2023-08-08T16:07:57;23.30;45.00
46752;DHT22;32497;48.936;9.270;2023-08-08T16:12:58;23.40;44.80
46752;DHT22;32497;48.936;9.270;2023-08-08T16:18:00;23.80;43.30
46752;DHT22;32497;48.936;9.270;2023-08-08T16:23:02;23.60;43.80
46752;DHT22;32497;48.936;9.270;2023-08-08T16:28:04;23.90;42.20
46752;DHT22;32497;48.936;9.270;2023-08-08T16:33:06;23.50;43.60
46752;DHT22;32497;48.936;9.270;2023-08-08T16:38:07;23.60;41.80
46752;DHT22;32497;48.936;9.270;2023-08-08T16:43:08;23.20;44.50
46752;DHT22;32497;48.936;9.270;2023-08-08T16:48:11;22.80;43.50
46752;DHT22;32497;48.936;9.270;2023-08-08T16:53:12;23.10;42.80
46752;DHT22;32497;48.936;9.270;2023-08-08T16:58:13;22.60;44.60
46752;DHT22;32497;48.936;9.270;2023-08-08T17:03:16;22.00;44.60
46752;DHT22;32497;48.936;9.270;2023-08-08T17:08:17;21.90;46.50
46752;DHT22;32497;48.936;9.270;2023-08-08T17:13:18;21.70;46.90
46752;DHT22;32497;48.936;9.270;2023-08-08T17:18:20;21.70;46.80
46752;DHT22;32497;48.936;9.270;2023-08-08T17:23:21;21.70;47.80
46752;DHT22;32497;48.936;9.270;2023-08-08T17:28:22;21.40;48.00
46752;DHT22;32497;48.936;9.270;2023-08-08T17:33:25;21.20;49.00
46752;DHT22;32497;48.936;9.270;2023-08-08T17:38:26;20.90;49.30
46752;DHT22;32497;48.936;9.270;2023-08-08T17:43:27;21.00;49.10
46752;DHT22;32497;48.936;9.270;2023-08-08T17:48:30;20.90;49.80
46752;DHT22;32497;48.936;9.270;2023-08-08T17:53:31;21.00;50.60
46752;DHT22;32497;48.936;9.270;2023-08-08T17:58:32;20.90;49.50
46752;DHT22;32497;48.936;9.270;2023-08-08T18:03:35;20.70;51.70
46752;DHT22;32497;48.936;9.270;2023-08-08T18:08:36;20.60;51.00
46752;DHT22;32497;48.936;9.270;2023-08-08T18:13:37;20.60;53.20
46752;DHT22;32497;48.936;9.270;2023-08-08T18:18:39;20.50;52.40
46752;DHT22;32497;48.936;9.270;2023-08-08T18:23:40;20.40;53.50
46752;DHT22;32497;48.936;9.270;2023-08-08T18:28:41;20.40;52.90
46752;DHT22;32497;48.936;9.270;2023-08-08T18:33:44;20.30;53.30
46752;DHT22;32497;48.936;9.270;2023-08-08T18:38:46;20.20;53.50
46752;DHT22;32497;48.936;9.270;2023-08-08T18:43:47;20.10;54.20
46752;DHT22;32497;48.936;9.270;2023-08-08T18:48:49;20.00;54.00
46752;DHT22;32497;48.936;9.270;2023-08-08T18:53:50;19.90;55.90
46752;DHT22;32497;48.936;9.270;2023-08-08T18:58:52;19.70;54.20
46752;DHT22;32497;48.936;9.270;2023-08-08T19:03:54;19.70;55.50
46752;DHT22;32497;48.936;9.270;2023-08-08T19:08:55;19.70;56.90
46752;DHT22;32497;48.936;9.270;2023-08-08T19:13:56;19.70;57.60
46752;DHT22;32497;48.936;9.270;2023-08-08T19:18:59;19.70;57.10
46752;DHT22;32497;48.936;9.270;2023-08-08T19:24:00;19.60;59.10
46752;DHT22;32497;48.936;9.270;2023-08-08T19:29:01;19.60;59.40
46752;DHT22;32497;48.936;9.270;2023-08-08T19:34:04;19.50;59.60
46752;DHT22;32497;48.936;9.270;2023-08-08T19:39:05;19.40;58.80
46752;DHT22;32497;48.936;9.270;2023-08-08T19:44:06;19.40;59.70
46752;DHT22;32497;48.936;9.270;2023-08-08T19:49:09;19.30;59.80
46752;DHT22;32497;48.936;9.270;2023-08-08T19:54:10;19.30;59.60
46752;DHT22;32497;48.936;9.270;2023-08-08T19:59:11;19.20;60.60
46752;DHT22;32497;48.936;9.270;2023-08-08T20:04:14;19.10;64.10
46752;DHT22;32497;48.936;9.270;2023-08-08T20:09:15;18.90;67.10
46752;DHT22;32497;48.936;9.270;2023-08-08T20:14:16;18.70;67.80
46752;DHT22;32497;48.936;9.270;2023-08-08T20:19:19;18.40;66.30
46752;DHT22;32497;48.936;9.270;2023-08-08T20:24:20;18.40;68.00
46752;DHT22;32497;48.936;9.270;2023-08-08T20:29:21;18.40;67.60
46752;DHT22;32497;48.936;9.270;2023-08-08T20:34:23;18.40;66.30
46752;DHT22;32497;48.936;9.270;2023-08-08T20:39:25;18.30;65.90
46752;DHT22;32497;48.936;9.270;2023-08-08T20:44:26;18.30;66.30
46752;DHT22;32497;48.936;9.270;2023-08-08T20:49:29;18.30;63.80
46752;DHT22;32497;48.936;9.270;2023-08-08T20:54:30;18.20;63.80
46752;DHT22;32497;48.936;9.270;2023-08-08T20:59:31;18.20;64.60
46752;DHT22;32497;48.936;9.270;2023-08-08T21:04:33;18.20;65.10
46752;DHT22;32497;48.936;9.270;2023-08-08T21:09:34;18.20;65.60
46752;DHT22;32497;48.936;9.270;2023-08-08T21:14:35;18.20;66.50
46752;DHT22;32497;48.936;9.270;2023-08-08T21:19:38;18.20;66.30
46752;DHT22;32497;48.936;9.270;2023-08-08T21:24:39;18.20;67.10
46752;DHT22;32497;48.936;9.270;2023-08-08T21:29:42;18.20;67.40
46752;DHT22;32497;48.936;9.270;2023-08-08T21:34:45;18.10;67.80
46752;DHT22;32497;48.936;9.270;2023-08-08T21:39:46;18.10;68.20
46752;DHT22;32497;48.936;9.270;2023-08-08T21:44:47;18.00;68.30
46752;DHT22;32497;48.936;9.270;2023-08-08T21:49:49;17.90;68.40
46752;DHT22;32497;48.936;9.270;2023-08-08T21:54:51;17.80;69.30
46752;DHT22;32497;48.936;9.270;2023-08-08T21:59:52;17.80;70.00
46752;DHT22;32497;48.936;9.270;2023-08-08T22:04:54;17.70;69.60
46752;DHT22;32497;48.936;9.270;2023-08-08T22:09:55;17.60;69.70
46752;DHT22;32497;48.936;9.270;2023-08-08T22:14:56;17.60;70.60
46752;DHT22;32497;48.936;9.270;2023-08-08T22:19:59;17.60;70.80
46752;DHT22;32497;48.936;9.270;2023-08-08T22:25:00;17.40;70.90
46752;DHT22;32497;48.936;9.270;2023-08-08T22:30:01;17.30;71.70
46752;DHT22;32497;48.936;9.270;2023-08-08T22:35:04;17.30;71.80
46752;DHT22;32497;48.936;9.270;2023-08-08T22:40:06;17.20;71.10
46752;DHT22;32497;48.936;9.270;2023-08-08T22:45:09;17.20;70.90
46752;DHT22;32497;48.936;9.270;2023-08-08T22:50:12;17.20;70.70
46752;DHT22;32497;48.936;9.270;2023-08-08T22:55:13;17.20;70.30
46752;DHT22;32497;48.936;9.270;2023-08-08T23:00:14;17.30;70.60
46752;DHT22;32497;48.936;9.270;2023-08-08T23:05:17;17.20;70.90
46752;DHT22;32497;48.936;9.270;2023-08-08T23:10:18;17.10;69.90
46752;DHT22;32497;48.936;9.270;2023-08-08T23:15:19;17.20;70.40
46752;DHT22;32497;48.936;9.270;2023-08-08T23:20:22;17.10;70.10
46752;DHT22;32497;48.936;9.270;2023-08-08T23:25:23;17.20;71.70
46752;DHT22;32497;48.936;9.270;2023-08-08T23:30:24;17.20;71.40
46752;DHT22;32497;48.936;9.270;2023-08-08T23:35:27;17.20;71.00
46752;DHT22;32497;48.936;9.270;2023-08-08T23:40:28;17.30;71.20
46752;DHT22;32497;48.936;9.270;2023-08-08T23:45:29;17.20;70.50
46752;DHT22;32497;48.936;9.270;2023-08-08T23:50:31;17.30;70.70
46752;DHT22;32497;48.936;9.270;2023-08-08T23:55:33;17.40;71.10
